Darstellungsparameter: Aktuell verwendete Einstellungen:
Skalierung der Graphiken ... ?
xyx+y,   Skalierungsfaktor:      Skalierung: Modus: x, Faktor: 1
Darstellungszeitraum ... ?
Vom - - bis: - -   Zeitraum: 07.05.2007 - 13.05.2007
Min/Max/Avg-Anzeige ... ?
Zeige MMA aktuell
Zeige MMA Monat
Zeige MMA alles
Zeige --A aktuell
Zeige --A Monat
Zeige --A alles
Keine MMA-Anzeige
MMA:
Average (ber die Originaldaten)
MMA-Basis: 07.05.2007 - 13.05.2007
Quicknavigation für Darstellung... ?
Tage:      1T, 2T, 3T, 5T -1T -2T -3T -5T +1T +2T +3T +5T
Wochen: 1W, 2W, 3W -1W -2W -3W +1W +2W +3W
Monate: 1M, 3M, 6M -1M -3M -6M +1M +3M +6M
Jahre:    1J, 3J, 5J, 10J -1J -3J -5J -10J +1J +3J +5J +10J
Nutze für die Darstellung ... ?
Originaldaten oder Mittelwerte auf ...
Stundenbasis Tagesbasis Wochenbasis
Monatsbasis Jahresbasis      Datenbasis: Original-Daten
Darstellen als:
Statistik (Auto) Statistik J:M      Darstellung:
Zur Graphik,    zurück zur Übersicht aller Sensoren.
 
Tabellarische Datenbersicht: ?
 
Sensor: Nr:Datum:Temp:Abs-Feuchte:Windchill:Wind:
Aussen-T/F 1 07-05-2007 00:07:01 17.5 C 5.22 g/m*3 17.5 C 0 km/h
2 07-05-2007 00:19:02 17.4 C 5.04 g/m*3 17.4 C 0 km/h
3 07-05-2007 00:31:02 17.2 C 5.13 g/m*3 17.2 C 0 km/h
4 07-05-2007 00:43:02 16.8 C 5.29 g/m*3 16.8 C 0 km/h
5 07-05-2007 00:55:02 16.6 C 5.23 g/m*3 16.6 C 0 km/h
6 07-05-2007 01:07:02 16.4 C 5.16 g/m*3 16.4 C 0 km/h
7 07-05-2007 01:19:01 16.4 C 5.3 g/m*3 16.4 C 0 km/h
8 07-05-2007 01:31:01 16.4 C 5.44 g/m*3 16.4 C 0 km/h
9 07-05-2007 01:43:01 16.2 C 5.65 g/m*3 16.2 C 0 km/h
10 07-05-2007 01:55:02 16 C 6.13 g/m*3 16 C 0 km/h
11 07-05-2007 02:07:01 15.9 C 6.09 g/m*3 15.9 C 0 km/h
12 07-05-2007 02:19:01 16 C 5.99 g/m*3 16 C 0 km/h
13 07-05-2007 02:31:01 16 C 6.13 g/m*3 16 C 0 km/h
14 07-05-2007 02:43:02 16 C 6.13 g/m*3 16 C 0 km/h
15 07-05-2007 02:56:04 15.8 C 6.46 g/m*3 15.8 C 0 km/h
16 07-05-2007 03:08:04 15.9 C 6.64 g/m*3 15.9 C 0 km/h
17 07-05-2007 03:20:04 16 C 6.68 g/m*3 16 C 0 km/h
18 07-05-2007 03:32:02 16 C 6.81 g/m*3 16 C 0 km/h
19 07-05-2007 03:44:02 15.9 C 6.91 g/m*3 15.9 C 0 km/h
20 07-05-2007 03:56:02 15.8 C 6.73 g/m*3 15.8 C 0 km/h
21 07-05-2007 04:08:03 15.6 C 6.92 g/m*3 15.6 C 0 km/h
22 07-05-2007 04:20:03 15.6 C 6.92 g/m*3 15.6 C 0 km/h
23 07-05-2007 04:32:02 15.6 C 7.05 g/m*3 15.6 C 0 km/h
24 07-05-2007 04:44:02 15.5 C 7.14 g/m*3 15.5 C 0 km/h
25 07-05-2007 04:56:03 15.4 C 7.09 g/m*3 15.4 C 0 km/h
Sensor: Nr:Datum:Temp:Abs-Feuchte:Windchill:Wind:
Aussen-T/F 26 07-05-2007 05:08:02 15.5 C 7.01 g/m*3 15.5 C 0 km/h
27 07-05-2007 05:20:02 15.5 C 7.01 g/m*3 15.5 C 0 km/h
28 07-05-2007 05:32:02 15.4 C 7.23 g/m*3 15.4 C 0 km/h
29 07-05-2007 05:44:02 15 C 7.31 g/m*3 15 C 0 km/h
30 07-05-2007 05:56:02 14.9 C 7.39 g/m*3 14.9 C 0 km/h
31 07-05-2007 06:08:02 14.7 C 7.3 g/m*3 14.7 C 0 km/h
32 07-05-2007 06:20:01 14.7 C 7.18 g/m*3 14.7 C 0 km/h
33 07-05-2007 06:32:02 14.9 C 7.14 g/m*3 14.9 C 0 km/h
34 07-05-2007 06:44:02 14.8 C 7.09 g/m*3 14.8 C 0 km/h
35 07-05-2007 06:56:02 14.8 C 7.22 g/m*3 14.8 C 0 km/h
36 07-05-2007 07:08:02 14.5 C 7.84 g/m*3 14.5 C 0 km/h
37 07-05-2007 07:20:40 13.7 C 8.29 g/m*3 13.7 C 0 km/h
38 07-05-2007 07:32:02 13.3 C 8.43 g/m*3 13.3 C 0 km/h
39 07-05-2007 07:44:02 13 C 8.51 g/m*3 13 C 0 km/h
40 07-05-2007 07:56:02 12.8 C 8.85 g/m*3 12.8 C 0 km/h
41 07-05-2007 08:08:02 12.8 C 8.96 g/m*3 12.8 C 0 km/h
42 07-05-2007 08:20:02 12.7 C 8.91 g/m*3 12.7 C 0 km/h
43 07-05-2007 08:32:02 12.6 C 8.96 g/m*3 12.6 C 0 km/h
44 07-05-2007 08:44:02 12.7 C 9.02 g/m*3 12.7 C 0 km/h
45 07-05-2007 08:56:02 13.2 C 9.07 g/m*3 13.2 C 0 km/h
46 07-05-2007 09:08:02 13.7 C 9.12 g/m*3 13.7 C 0 km/h
47 07-05-2007 09:20:02 13.7 C 9 g/m*3 13.7 C 0 km/h
48 07-05-2007 09:32:02 13.7 C 9.24 g/m*3 13.7 C 0 km/h
49 07-05-2007 09:44:02 13.6 C 9.42 g/m*3 13.6 C 0 km/h
50 07-05-2007 09:56:03 13.4 C 9.3 g/m*3 13.4 C 0 km/h
Sensor: Nr:Datum:Temp:Abs-Feuchte:Windchill:Wind:
Aussen-T/F 51 07-05-2007 10:08:02 13.4 C 9.3 g/m*3 13.4 C 0 km/h
52 07-05-2007 10:20:02 13.7 C 9.35 g/m*3 13.7 C 0 km/h
53 07-05-2007 10:32:02 13.8 C 9.17 g/m*3 13.8 C 0 km/h
54 07-05-2007 10:44:02 14 C 9.17 g/m*3 14 C 0 km/h
55 07-05-2007 10:56:02 14.2 C 9.16 g/m*3 14.2 C 0 km/h
56 07-05-2007 11:08:02 14.4 C 9.15 g/m*3 14.4 C 0 km/h
57 07-05-2007 11:20:02 14.5 C 9.2 g/m*3 14.5 C 0 km/h
58 07-05-2007 11:32:01 14.6 C 9.13 g/m*3 14.6 C 0 km/h
59 07-05-2007 11:44:01 14.9 C 9.18 g/m*3 14.9 C 0 km/h
60 07-05-2007 11:56:02 15.6 C 9.18 g/m*3 15.6 C 0 km/h
61 07-05-2007 12:08:01 16.1 C 9.18 g/m*3 16.1 C 0 km/h
62 07-05-2007 12:20:02 16.3 C 9.02 g/m*3 16.3 C 0 km/h
63 07-05-2007 12:32:02 16.3 C 9.02 g/m*3 16.3 C 0 km/h
64 07-05-2007 12:44:02 16.2 C 9.1 g/m*3 16.2 C 0 km/h
65 07-05-2007 12:56:02 16.2 C 9.24 g/m*3 16.2 C 0 km/h
66 07-05-2007 13:08:02 16.1 C 9.18 g/m*3 16.1 C 0 km/h
67 07-05-2007 13:20:02 16.4 C 9.21 g/m*3 16.4 C 0 km/h
68 07-05-2007 13:32:02 16.5 C 9.13 g/m*3 16.5 C 0 km/h
69 07-05-2007 13:44:02 16.4 C 9.21 g/m*3 16.4 C 0 km/h
70 07-05-2007 13:56:01 16.2 C 9.1 g/m*3 16.2 C 0 km/h
71 07-05-2007 14:08:02 16.4 C 9.21 g/m*3 16.4 C 0 km/h
72 07-05-2007 14:20:01 16.8 C 9.29 g/m*3 16.8 C 0 km/h
73 07-05-2007 14:32:01 18 C 9.06 g/m*3 18 C 0 km/h
74 07-05-2007 14:44:01 18.2 C 8.86 g/m*3 18.2 C 0 km/h
75 07-05-2007 14:56:01 17.9 C 9.01 g/m*3 17.9 C 0 km/h
Sensor: Nr:Datum:Temp:Abs-Feuchte:Windchill:Wind:
Aussen-T/F 76 07-05-2007 15:08:01 18.3 C 8.91 g/m*3 18.3 C 0 km/h
77 07-05-2007 15:20:02 17.9 C 9.01 g/m*3 17.9 C 0 km/h
78 07-05-2007 15:32:01 18.5 C 8.86 g/m*3 18.5 C 0 km/h
79 07-05-2007 15:44:01 19.5 C 8.89 g/m*3 19.5 C 0 km/h
80 07-05-2007 15:56:02 18.5 C 8.39 g/m*3 18.5 C 0 km/h
81 07-05-2007 16:08:02 18.1 C 8.5 g/m*3 18.1 C 0 km/h
82 07-05-2007 16:20:01 18 C 8.6 g/m*3 18 C 0 km/h
83 07-05-2007 16:32:02 18.2 C 8.55 g/m*3 18.2 C 0 km/h
84 07-05-2007 16:44:02 18.4 C 8.49 g/m*3 18.4 C 0 km/h
85 07-05-2007 16:56:01 18.2 C 8.55 g/m*3 18.2 C 0 km/h
86 07-05-2007 17:08:02 18.5 C 8.54 g/m*3 18.5 C 0 km/h
87 07-05-2007 17:20:01 18.1 C 8.5 g/m*3 18.1 C 0 km/h
88 07-05-2007 17:32:01 17.8 C 8.8 g/m*3 17.8 C 0 km/h
89 07-05-2007 17:44:01 17.7 C 8.9 g/m*3 17.7 C 0 km/h
90 07-05-2007 17:56:02 17.1 C 8.88 g/m*3 17.1 C 0 km/h
91 07-05-2007 18:08:02 16.9 C 9.06 g/m*3 16.9 C 0 km/h
92 07-05-2007 18:20:02 16.4 C 9.21 g/m*3 16.4 C 0 km/h
93 07-05-2007 18:32:02 16.5 C 9.41 g/m*3 16.5 C 0 km/h
94 07-05-2007 18:44:02 16.2 C 9.52 g/m*3 16.2 C 0 km/h
95 07-05-2007 18:56:02 15.4 C 9.99 g/m*3 15.4 C 0 km/h
96 07-05-2007 19:08:02 14.8 C 10.39 g/m*3 14.8 C 0 km/h
97 07-05-2007 19:20:02 14.4 C 10.38 g/m*3 14.4 C 0 km/h
98 07-05-2007 19:32:02 14.7 C 10.58 g/m*3 14.7 C 0 km/h
99 07-05-2007 19:44:02 14.7 C 10.58 g/m*3 14.7 C 0 km/h
100 07-05-2007 19:56:02 15 C 10.13 g/m*3 15 C 0 km/h
Sensor: Nr:Datum:Temp:Abs-Feuchte:Windchill:Wind:
Aussen-T/F 101 07-05-2007 20:08:02 15 C 10.13 g/m*3 15 C 0 km/h
102 07-05-2007 20:20:02 14.6 C 10.39 g/m*3 14.6 C 0 km/h
103 07-05-2007 20:32:02 14.7 C 10.58 g/m*3 14.7 C 0 km/h
104 07-05-2007 20:44:02 14.5 C 10.32 g/m*3 14.5 C 0 km/h
105 07-05-2007 20:56:02 14.8 C 10.51 g/m*3 14.8 C 0 km/h
106 07-05-2007 21:08:02 14.9 C 10.45 g/m*3 14.9 C 0 km/h
107 07-05-2007 21:20:03 15.1 C 10.19 g/m*3 15.1 C 0 km/h
108 07-05-2007 21:32:02 15.1 C 10.19 g/m*3 15.1 C 0 km/h
109 07-05-2007 21:44:02 15.2 C 10.12 g/m*3 15.2 C 0 km/h
110 07-05-2007 21:56:02 15.3 C 10.06 g/m*3 15.3 C 0 km/h
111 07-05-2007 22:08:02 15.1 C 10.06 g/m*3 15.1 C 0 km/h
112 07-05-2007 22:20:02 15 C 10.26 g/m*3 15 C 0 km/h
113 07-05-2007 22:32:02 14.7 C 10.45 g/m*3 14.7 C 0 km/h
114 07-05-2007 22:44:03 14.5 C 10.45 g/m*3 14.5 C 0 km/h
115 07-05-2007 22:56:02 14.3 C 10.69 g/m*3 14.3 C 0 km/h
116 07-05-2007 23:08:03 14.2 C 10.87 g/m*3 14.2 C 0 km/h
117 07-05-2007 23:20:02 14.1 C 10.8 g/m*3 14.1 C 0 km/h
118 07-05-2007 23:32:02 14.1 C 11.04 g/m*3 14.1 C 0 km/h
119 07-05-2007 23:44:02 14 C 11.1 g/m*3 14 C 0 km/h
120 07-05-2007 23:56:02 13.9 C 11.15 g/m*3 13.9 C 0 km/h
121 08-05-2007 00:08:02 13.9 C 11.15 g/m*3 13.9 C 0 km/h
122 08-05-2007 00:20:03 13.7 C 11.01 g/m*3 13.7 C 0 km/h
123 08-05-2007 00:32:02 13.6 C 10.95 g/m*3 13.6 C 0 km/h
124 08-05-2007 00:44:02 13.7 C 10.89 g/m*3 13.7 C 0 km/h
125 08-05-2007 00:56:01 13.7 C 10.66 g/m*3 13.7 C 0 km/h
Sensor: Nr:Datum:Temp:Abs-Feuchte:Windchill:Wind:
Aussen-T/F 126 08-05-2007 01:08:02 13.7 C 10.3 g/m*3 13.7 C 0 km/h
127 08-05-2007 01:20:02 13.7 C 10.07 g/m*3 13.7 C 0 km/h
128 08-05-2007 01:32:01 13.6 C 9.89 g/m*3 13.6 C 0 km/h
129 08-05-2007 01:44:01 13.5 C 9.83 g/m*3 13.5 C 0 km/h
130 08-05-2007 01:56:02 13.4 C 9.76 g/m*3 13.4 C 0 km/h
131 08-05-2007 02:08:02 13.5 C 9.83 g/m*3 13.5 C 0 km/h
132 08-05-2007 02:20:03 13.4 C 9.76 g/m*3 13.4 C 0 km/h
133 08-05-2007 02:32:03 13.5 C 9.59 g/m*3 13.5 C 0 km/h
134 08-05-2007 02:44:03 13.3 C 9.36 g/m*3 13.3 C 0 km/h
135 08-05-2007 02:56:01 13 C 9.19 g/m*3 13 C 0 km/h
136 08-05-2007 03:08:02 12.8 C 9.3 g/m*3 12.8 C 0 km/h
137 08-05-2007 03:20:02 12.7 C 9.24 g/m*3 12.7 C 0 km/h
138 08-05-2007 03:32:01 12.6 C 9.07 g/m*3 12.6 C 0 km/h
139 08-05-2007 03:44:01 12.6 C 8.85 g/m*3 12.6 C 0 km/h
140 08-05-2007 03:56:01 12.8 C 8.74 g/m*3 12.8 C 0 km/h
141 08-05-2007 04:08:02 13 C 8.51 g/m*3 13 C 0 km/h
142 08-05-2007 04:20:02 12.8 C 8.18 g/m*3 12.8 C 0 km/h
143 08-05-2007 04:32:02 12.6 C 8.08 g/m*3 12.6 C 0 km/h
144 08-05-2007 04:44:02 12.3 C 7.82 g/m*3 12.3 C 0 km/h
145 08-05-2007 04:56:01 12.2 C 7.45 g/m*3 12.2 C 0 km/h
146 08-05-2007 05:08:01 11.9 C 7.41 g/m*3 11.9 C 0 km/h
147 08-05-2007 05:20:02 11.5 C 7.44 g/m*3 11.5 C 0 km/h
148 08-05-2007 05:32:01 11.2 C 7.5 g/m*3 11.2 C 0 km/h
149 08-05-2007 05:44:01 11.4 C 7.6 g/m*3 11.4 C 0 km/h
150 08-05-2007 05:56:02 11.5 C 7.54 g/m*3 11.5 C 0 km/h
Sensor: Nr:Datum:Temp:Abs-Feuchte:Windchill:Wind:
Aussen-T/F 151 08-05-2007 06:08:01 11.2 C 7.5 g/m*3 11.2 C 0 km/h
152 08-05-2007 06:20:02 11.2 C 7.5 g/m*3 11.2 C 0 km/h
153 08-05-2007 06:32:02 11.4 C 7.6 g/m*3 11.4 C 0 km/h
154 08-05-2007 06:44:02 11.7 C 7.53 g/m*3 11.7 C 0 km/h
155 08-05-2007 06:56:02 12.1 C 7.29 g/m*3 12.1 C 0 km/h
156 08-05-2007 07:08:02 12.2 C 7.34 g/m*3 12.2 C 0 km/h
157 08-05-2007 07:20:01 12.2 C 7.34 g/m*3 12.2 C 0 km/h
158 08-05-2007 07:32:02 12.3 C 7.38 g/m*3 12.3 C 0 km/h
159 08-05-2007 07:44:02 12.4 C 7.43 g/m*3 12.4 C 0 km/h
160 08-05-2007 07:56:01 12.3 C 7.6 g/m*3 12.3 C 0 km/h
161 08-05-2007 08:08:02 12.5 C 7.7 g/m*3 12.5 C 0 km/h
162 08-05-2007 08:20:02 12.8 C 7.73 g/m*3 12.8 C 0 km/h
163 08-05-2007 08:32:01 13 C 7.71 g/m*3 13 C 0 km/h
164 08-05-2007 08:44:01 13.1 C 7.42 g/m*3 13.1 C 0 km/h
165 08-05-2007 08:56:02 13.3 C 7.51 g/m*3 13.3 C 0 km/h
166 08-05-2007 09:08:01 13.9 C 7.55 g/m*3 13.9 C 0 km/h
167 08-05-2007 09:20:01 13.4 C 7.44 g/m*3 13.4 C 0 km/h
168 08-05-2007 09:32:02 13.6 C 7.18 g/m*3 13.6 C 0 km/h
169 08-05-2007 09:44:02 14.4 C 7.05 g/m*3 14.4 C 0 km/h
170 08-05-2007 09:56:01 14.7 C 6.55 g/m*3 14.7 C 0 km/h
171 08-05-2007 10:08:02 14.7 C 6.04 g/m*3 14.7 C 0 km/h
172 08-05-2007 10:20:01 15.2 C 6.23 g/m*3 15.2 C 0 km/h
173 08-05-2007 10:32:02 15 C 6.03 g/m*3 15 C 0 km/h
174 08-05-2007 10:44:02 14.8 C 6.08 g/m*3 14.8 C 0 km/h
175 08-05-2007 10:56:01 15 C 5.77 g/m*3 15 C 0 km/h
Sensor: Nr:Datum:Temp:Abs-Feuchte:Windchill:Wind:
Aussen-T/F 176 08-05-2007 11:08:01 15.2 C 5.58 g/m*3 15.2 C 0 km/h
177 08-05-2007 11:20:02 15.4 C 5.78 g/m*3 15.4 C 0 km/h
178 08-05-2007 11:32:01 15.4 C 5.65 g/m*3 15.4 C 0 km/h
179 08-05-2007 11:44:01 15.3 C 5.62 g/m*3 15.3 C 0 km/h
180 08-05-2007 11:56:02 15.7 C 5.62 g/m*3 15.7 C 0 km/h
181 08-05-2007 12:08:01 16.3 C 5.55 g/m*3 16.3 C 0 km/h
182 08-05-2007 12:20:02 16.9 C 5.9 g/m*3 16.9 C 0 km/h
183 08-05-2007 12:32:01 17.1 C 5.97 g/m*3 17.1 C 0 km/h
184 08-05-2007 12:44:02 16.8 C 5.86 g/m*3 16.8 C 0 km/h
185 08-05-2007 12:56:02 17.2 C 5.86 g/m*3 17.2 C 0 km/h
186 08-05-2007 13:08:01 18.1 C 6.03 g/m*3 18.1 C 0 km/h
187 08-05-2007 13:20:01 18.6 C 6.21 g/m*3 18.6 C 0 km/h
188 08-05-2007 13:32:02 18.6 C 5.89 g/m*3 18.6 C 0 km/h
189 08-05-2007 13:44:02 18.9 C 5.99 g/m*3 18.9 C 0 km/h
190 08-05-2007 13:56:01 18.1 C 5.56 g/m*3 18.1 C 0 km/h
191 08-05-2007 14:08:02 17.4 C 5.63 g/m*3 17.4 C 0 km/h
192 08-05-2007 14:20:01 17.3 C 5.45 g/m*3 17.3 C 0 km/h
193 08-05-2007 14:32:01 17.5 C 5.67 g/m*3 17.5 C 0 km/h
194 08-05-2007 14:44:01 17.3 C 5.45 g/m*3 17.3 C 0 km/h
195 08-05-2007 14:56:01 17.2 C 5.56 g/m*3 17.2 C 0 km/h
196 08-05-2007 15:08:01 17.1 C 5.53 g/m*3 17.1 C 0 km/h
197 08-05-2007 15:20:02 17.1 C 5.53 g/m*3 17.1 C 0 km/h
198 08-05-2007 15:32:01 16.2 C 5.93 g/m*3 16.2 C 0 km/h
199 08-05-2007 15:44:01 14.4 C 7.05 g/m*3 14.4 C 0 km/h
200 08-05-2007 15:56:02 12.8 C 7.95 g/m*3 12.8 C 0 km/h
Sensor: Nr:Datum:Temp:Abs-Feuchte:Windchill:Wind:
Aussen-T/F 201 08-05-2007 16:08:01 12.2 C 8.2 g/m*3 12.2 C 0 km/h
202 08-05-2007 16:20:01 12 C 8.63 g/m*3 12 C 0 km/h
203 08-05-2007 16:32:02 12 C 8.95 g/m*3 12 C 0 km/h
204 08-05-2007 16:44:02 11.9 C 9 g/m*3 11.9 C 0 km/h
205 08-05-2007 16:56:01 11.8 C 8.95 g/m*3 11.8 C 0 km/h
206 08-05-2007 17:08:02 11.8 C 8.95 g/m*3 11.8 C 0 km/h
207 08-05-2007 17:20:01 11.8 C 8.95 g/m*3 11.8 C 0 km/h
208 08-05-2007 17:32:02 12.2 C 8.96 g/m*3 12.2 C 0 km/h
209 08-05-2007 17:44:02 13.3 C 8.78 g/m*3 13.3 C 0 km/h
210 08-05-2007 17:56:01 13.2 C 8.15 g/m*3 13.2 C 0 km/h
211 08-05-2007 18:08:02 14.7 C 8.56 g/m*3 14.7 C 0 km/h
212 08-05-2007 18:20:02 15.7 C 8.56 g/m*3 15.7 C 0 km/h
213 08-05-2007 18:32:01 14.9 C 8.16 g/m*3 14.9 C 0 km/h
214 08-05-2007 18:44:01 14.7 C 8.18 g/m*3 14.7 C 0 km/h
215 08-05-2007 18:56:02 14.7 C 8.44 g/m*3 14.7 C 0 km/h
216 08-05-2007 19:08:01 14.6 C 8.38 g/m*3 14.6 C 0 km/h
217 08-05-2007 19:20:02 15.2 C 8.44 g/m*3 15.2 C 0 km/h
218 08-05-2007 19:32:01 16.2 C 7.86 g/m*3 16.2 C 0 km/h
219 08-05-2007 19:44:01 17 C 7.23 g/m*3 17 C 0 km/h
220 08-05-2007 19:56:02 17 C 7.09 g/m*3 17 C 0 km/h
221 08-05-2007 20:08:01 16.7 C 6.82 g/m*3 16.7 C 0 km/h
222 08-05-2007 20:20:01 16.1 C 6.85 g/m*3 16.1 C 0 km/h
223 08-05-2007 20:32:02 15.5 C 7.01 g/m*3 15.5 C 0 km/h
224 08-05-2007 20:44:02 15.3 C 6.79 g/m*3 15.3 C 0 km/h
225 08-05-2007 20:56:01 15 C 6.67 g/m*3 15 C 0 km/h
Sensor: Nr:Datum:Temp:Abs-Feuchte:Windchill:Wind:
Aussen-T/F 226 08-05-2007 21:08:02 14.4 C 6.92 g/m*3 14.4 C 0 km/h
227 08-05-2007 21:20:01 14.3 C 6.88 g/m*3 14.3 C 0 km/h
228 08-05-2007 21:32:01 14.4 C 7.05 g/m*3 14.4 C 0 km/h
229 08-05-2007 21:44:01 14.3 C 7.13 g/m*3 14.3 C 0 km/h
230 08-05-2007 21:56:01 14.4 C 7.17 g/m*3 14.4 C 0 km/h
231 08-05-2007 22:08:02 14.4 C 7.29 g/m*3 14.4 C 0 km/h
232 08-05-2007 22:20:02 14.3 C 7.37 g/m*3 14.3 C 0 km/h
233 08-05-2007 22:32:02 14 C 7.48 g/m*3 14 C 0 km/h
234 08-05-2007 22:44:02 14.1 C 7.16 g/m*3 14.1 C 0 km/h
235 08-05-2007 22:56:01 14.1 C 7.16 g/m*3 14.1 C 0 km/h
236 08-05-2007 23:08:02 14 C 7.24 g/m*3 14 C 0 km/h
237 08-05-2007 23:20:02 13.9 C 7.31 g/m*3 13.9 C 0 km/h
238 08-05-2007 23:32:01 14 C 7.24 g/m*3 14 C 0 km/h
239 08-05-2007 23:44:01 14.2 C 7.08 g/m*3 14.2 C 0 km/h
240 08-05-2007 23:56:02 14.2 C 6.96 g/m*3 14.2 C 0 km/h
241 09-05-2007 00:08:01 14.2 C 6.84 g/m*3 14.2 C 0 km/h
242 09-05-2007 00:20:02 14.2 C 6.72 g/m*3 14.2 C 0 km/h
243 09-05-2007 00:32:01 14.2 C 6.72 g/m*3 14.2 C 0 km/h
244 09-05-2007 00:44:01 14.2 C 6.59 g/m*3 14.2 C 0 km/h
245 09-05-2007 00:56:01 14.1 C 6.67 g/m*3 14.1 C 0 km/h
246 09-05-2007 01:08:01 14.2 C 6.59 g/m*3 14.2 C 0 km/h
247 09-05-2007 01:20:01 14.2 C 6.59 g/m*3 14.2 C 0 km/h
248 09-05-2007 01:32:01 14.1 C 6.67 g/m*3 14.1 C 0 km/h
249 09-05-2007 01:44:01 14 C 6.75 g/m*3 14 C 0 km/h
250 09-05-2007 01:56:02 14 C 6.88 g/m*3 14 C 0 km/h
Sensor: Nr:Datum:Temp:Abs-Feuchte:Windchill:Wind:
Aussen-T/F 251 09-05-2007 02:08:01 14 C 6.75 g/m*3 14 C 0 km/h
252 09-05-2007 02:20:02 13.9 C 6.71 g/m*3 13.9 C 0 km/h
253 09-05-2007 02:32:01 14 C 6.27 g/m*3 14 C 0 km/h
254 09-05-2007 02:44:02 14 C 6.15 g/m*3 14 C 0 km/h
255 09-05-2007 02:57:07 13.7 C 6.39 g/m*3 13.7 C 0 km/h
256 09-05-2007 03:09:07 13.5 C 6.43 g/m*3 13.5 C 0 km/h
257 09-05-2007 03:21:07 13.4 C 6.51 g/m*3 13.4 C 0 km/h
258 09-05-2007 03:33:02 13.2 C 6.54 g/m*3 13.2 C 0 km/h
259 09-05-2007 03:45:02 13.1 C 6.39 g/m*3 13.1 C 0 km/h
260 09-05-2007 03:57:02 13.1 C 6.39 g/m*3 13.1 C 0 km/h
261 09-05-2007 04:09:02 13 C 6.35 g/m*3 13 C 0 km/h
262 09-05-2007 04:21:02 12.8 C 6.38 g/m*3 12.8 C 0 km/h
263 09-05-2007 04:33:02 12.7 C 6.57 g/m*3 12.7 C 0 km/h
264 09-05-2007 04:45:01 12.6 C 6.53 g/m*3 12.6 C 0 km/h
265 09-05-2007 04:57:01 12.5 C 6.6 g/m*3 12.5 C 0 km/h
266 09-05-2007 05:09:01 12.1 C 6.65 g/m*3 12.1 C 0 km/h
267 09-05-2007 05:21:02 12.1 C 6.76 g/m*3 12.1 C 0 km/h
268 09-05-2007 05:33:02 11.9 C 6.88 g/m*3 11.9 C 0 km/h
269 09-05-2007 05:45:02 11.8 C 6.95 g/m*3 11.8 C 0 km/h
270 09-05-2007 05:57:02 11.7 C 7.11 g/m*3 11.7 C 0 km/h
271 09-05-2007 06:09:02 11.4 C 7.19 g/m*3 11.4 C 0 km/h
272 09-05-2007 06:21:02 11.3 C 7.34 g/m*3 11.3 C 0 km/h
273 09-05-2007 06:33:02 11.4 C 7.49 g/m*3 11.4 C 0 km/h
274 09-05-2007 06:45:02 11.3 C 7.45 g/m*3 11.3 C 0 km/h
275 09-05-2007 06:57:02 11.2 C 7.5 g/m*3 11.2 C 0 km/h
Sensor: Nr:Datum:Temp:Abs-Feuchte:Windchill:Wind:
Aussen-T/F 276 09-05-2007 07:09:02 11.2 C 7.7 g/m*3 11.2 C 0 km/h
277 09-05-2007 07:21:01 11.2 C 7.7 g/m*3 11.2 C 0 km/h
278 09-05-2007 07:33:02 11.4 C 7.9 g/m*3 11.4 C 0 km/h
279 09-05-2007 07:45:02 11.5 C 7.95 g/m*3 11.5 C 0 km/h
280 09-05-2007 07:57:02 11.6 C 8.11 g/m*3 11.6 C 0 km/h
281 09-05-2007 08:09:03 11.9 C 7.94 g/m*3 11.9 C 0 km/h
282 09-05-2007 08:21:02 12.1 C 7.94 g/m*3 12.1 C 0 km/h
283 09-05-2007 08:33:02 12.3 C 8.04 g/m*3 12.3 C 0 km/h
284 09-05-2007 08:45:03 12.4 C 8.19 g/m*3 12.4 C 0 km/h
285 09-05-2007 08:57:03 12.4 C 8.19 g/m*3 12.4 C 0 km/h
286 09-05-2007 09:09:03 12.3 C 8.36 g/m*3 12.3 C 0 km/h
287 09-05-2007 09:21:02 12.3 C 8.47 g/m*3 12.3 C 0 km/h
288 09-05-2007 09:33:02 12.4 C 8.74 g/m*3 12.4 C 0 km/h
289 09-05-2007 09:45:01 12.5 C 8.91 g/m*3 12.5 C 0 km/h
290 09-05-2007 09:57:01 12.2 C 8.85 g/m*3 12.2 C 0 km/h
291 09-05-2007 10:09:02 12.3 C 9.01 g/m*3 12.3 C 0 km/h
292 09-05-2007 10:21:02 12.4 C 9.18 g/m*3 12.4 C 0 km/h
293 09-05-2007 10:33:02 12.6 C 9.18 g/m*3 12.6 C 0 km/h
294 09-05-2007 10:45:02 12.8 C 9.41 g/m*3 12.8 C 0 km/h
295 09-05-2007 10:57:02 12.9 C 9.35 g/m*3 12.9 C 0 km/h
296 09-05-2007 11:09:01 12.9 C 9.35 g/m*3 12.9 C 0 km/h
297 09-05-2007 11:21:02 12.9 C 9.35 g/m*3 12.9 C 0 km/h
298 09-05-2007 11:33:01 13 C 9.41 g/m*3 13 C 0 km/h
299 09-05-2007 11:45:03 13.2 C 9.42 g/m*3 13.2 C 0 km/h
300 09-05-2007 11:57:03 13.2 C 9.53 g/m*3 13.2 C 0 km/h
Sensor: Nr:Datum:Temp:Abs-Feuchte:Windchill:Wind:
Aussen-T/F 301 09-05-2007 12:09:02 13.2 C 9.64 g/m*3 13.2 C 0 km/h
302 09-05-2007 12:21:01 13.2 C 9.64 g/m*3 13.2 C 0 km/h
303 09-05-2007 12:33:02 12.9 C 9.47 g/m*3 12.9 C 0 km/h
304 09-05-2007 12:45:02 12.3 C 9.12 g/m*3 12.3 C 0 km/h
305 09-05-2007 12:57:02 12.1 C 9.22 g/m*3 12.1 C 0 km/h
306 09-05-2007 13:09:03 12.1 C 9.33 g/m*3 12.1 C 0 km/h
307 09-05-2007 13:21:02 12.1 C 9.44 g/m*3 12.1 C 0 km/h
308 09-05-2007 13:33:03 11.8 C 9.26 g/m*3 11.8 C 0 km/h
309 09-05-2007 13:45:02 12 C 9.38 g/m*3 12 C 0 km/h
310 09-05-2007 13:57:02 11.9 C 9.43 g/m*3 11.9 C 0 km/h
311 09-05-2007 14:09:02 12.2 C 9.5 g/m*3 12.2 C 0 km/h
312 09-05-2007 14:21:01 12.3 C 9.56 g/m*3 12.3 C 0 km/h
313 09-05-2007 14:33:01 12.7 C 9.8 g/m*3 12.7 C 0 km/h
314 09-05-2007 14:45:01 12.9 C 9.81 g/m*3 12.9 C 0 km/h
315 09-05-2007 14:57:01 12.9 C 9.81 g/m*3 12.9 C 0 km/h
316 09-05-2007 15:09:01 12.6 C 9.62 g/m*3 12.6 C 0 km/h
317 09-05-2007 15:21:02 12.7 C 9.8 g/m*3 12.7 C 0 km/h
318 09-05-2007 15:33:01 12.5 C 9.68 g/m*3 12.5 C 0 km/h
319 09-05-2007 15:45:02 12.3 C 9.66 g/m*3 12.3 C 0 km/h
320 09-05-2007 15:57:02 12.8 C 10.19 g/m*3 12.8 C 0 km/h
321 09-05-2007 16:09:01 13.1 C 10.16 g/m*3 13.1 C 0 km/h
322 09-05-2007 16:21:01 13.2 C 10.22 g/m*3 13.2 C 0 km/h
323 09-05-2007 16:33:02 13.2 C 10.22 g/m*3 13.2 C 0 km/h
324 09-05-2007 16:45:02 13.1 C 10.27 g/m*3 13.1 C 0 km/h
325 09-05-2007 16:57:02 13 C 10.21 g/m*3 13 C 0 km/h
Sensor: Nr:Datum:Temp:Abs-Feuchte:Windchill:Wind:
Aussen-T/F 326 09-05-2007 17:09:02 13 C 10.32 g/m*3 13 C 0 km/h
327 09-05-2007 17:21:02 13 C 10.32 g/m*3 13 C 0 km/h
328 09-05-2007 17:33:02 13.2 C 10.56 g/m*3 13.2 C 0 km/h
329 09-05-2007 17:45:02 13.4 C 10.69 g/m*3 13.4 C 0 km/h
330 09-05-2007 17:57:02 13.3 C 10.63 g/m*3 13.3 C 0 km/h
331 09-05-2007 18:09:02 13.4 C 10.69 g/m*3 13.4 C 0 km/h
332 09-05-2007 18:21:02 13.5 C 10.76 g/m*3 13.5 C 0 km/h
333 09-05-2007 18:33:01 13.5 C 10.76 g/m*3 13.5 C 0 km/h
334 09-05-2007 18:45:02 13.5 C 10.76 g/m*3 13.5 C 0 km/h
335 09-05-2007 18:57:02 13.5 C 10.76 g/m*3 13.5 C 0 km/h
336 09-05-2007 19:09:02 13.2 C 10.56 g/m*3 13.2 C 0 km/h
337 09-05-2007 19:21:01 13.2 C 10.56 g/m*3 13.2 C 0 km/h
338 09-05-2007 19:33:02 13.2 C 10.56 g/m*3 13.2 C 0 km/h
339 09-05-2007 19:45:01 12.9 C 10.48 g/m*3 12.9 C 0 km/h
340 09-05-2007 19:57:01 12.9 C 10.48 g/m*3 12.9 C 0 km/h
341 09-05-2007 20:09:02 12.8 C 10.42 g/m*3 12.8 C 0 km/h
342 09-05-2007 20:21:01 12.7 C 10.35 g/m*3 12.7 C 0 km/h
343 09-05-2007 20:33:01 12.7 C 10.46 g/m*3 12.7 C 0 km/h
344 09-05-2007 20:45:01 12.6 C 10.4 g/m*3 12.6 C 0 km/h
345 09-05-2007 20:57:01 12.6 C 10.4 g/m*3 12.6 C 0 km/h
346 09-05-2007 21:09:01 12.7 C 10.46 g/m*3 12.7 C 0 km/h
347 09-05-2007 21:21:02 12.4 C 10.27 g/m*3 12.4 C 0 km/h
348 09-05-2007 21:33:01 12.4 C 10.38 g/m*3 12.4 C 0 km/h
349 09-05-2007 21:45:03 12.4 C 10.38 g/m*3 12.4 C 0 km/h
350 09-05-2007 21:57:03 12.7 C 10.58 g/m*3 12.7 C 0 km/h
Sensor: Nr:Datum:Temp:Abs-Feuchte:Windchill:Wind:
Aussen-T/F 351 09-05-2007 22:09:02 12.7 C 10.58 g/m*3 12.7 C 0 km/h
352 09-05-2007 22:21:02 12.5 C 10.44 g/m*3 12.5 C 0 km/h
353 09-05-2007 22:33:03 12.6 C 10.51 g/m*3 12.6 C 0 km/h
354 09-05-2007 22:45:02 12.6 C 10.51 g/m*3 12.6 C 0 km/h
355 09-05-2007 22:57:02 12.6 C 10.51 g/m*3 12.6 C 0 km/h
356 09-05-2007 23:09:02 12.7 C 10.58 g/m*3 12.7 C 0 km/h
357 09-05-2007 23:21:02 12.9 C 10.71 g/m*3 12.9 C 0 km/h
358 09-05-2007 23:33:02 13 C 10.77 g/m*3 13 C 0 km/h
359 09-05-2007 23:45:02 13 C 10.77 g/m*3 13 C 0 km/h
360 09-05-2007 23:57:02 12.9 C 10.71 g/m*3 12.9 C 0 km/h
361 10-05-2007 00:09:03 12.9 C 10.71 g/m*3 12.9 C 0 km/h
362 10-05-2007 00:21:03 13 C 10.77 g/m*3 13 C 0 km/h
363 10-05-2007 00:33:03 12.9 C 10.71 g/m*3 12.9 C 0 km/h
364 10-05-2007 00:45:03 13.1 C 10.84 g/m*3 13.1 C 0 km/h
365 10-05-2007 00:57:03 13.1 C 10.73 g/m*3 13.1 C 0 km/h
366 10-05-2007 01:09:03 13 C 10.55 g/m*3 13 C 0 km/h
367 10-05-2007 01:21:02 13 C 10.43 g/m*3 13 C 0 km/h
368 10-05-2007 01:33:02 12.8 C 10.3 g/m*3 12.8 C 0 km/h
369 10-05-2007 01:45:02 12.8 C 10.08 g/m*3 12.8 C 0 km/h
370 10-05-2007 01:57:02 12.8 C 9.97 g/m*3 12.8 C 0 km/h
371 10-05-2007 02:09:02 12.8 C 9.86 g/m*3 12.8 C 0 km/h
372 10-05-2007 02:21:02 12.8 C 9.86 g/m*3 12.8 C 0 km/h
373 10-05-2007 02:33:02 12.9 C 9.81 g/m*3 12.9 C 0 km/h
374 10-05-2007 02:46:04 12.9 C 9.69 g/m*3 12.9 C 0 km/h
375 10-05-2007 02:58:04 12.9 C 9.58 g/m*3 12.9 C 0 km/h
Sensor: Nr:Datum:Temp:Abs-Feuchte:Windchill:Wind:
Aussen-T/F 376 10-05-2007 03:10:03 12.9 C 9.47 g/m*3 12.9 C 0 km/h
377 10-05-2007 03:22:03 13 C 9.3 g/m*3 13 C 0 km/h
378 10-05-2007 03:34:01 13.1 C 9.24 g/m*3 13.1 C 0 km/h
379 10-05-2007 03:46:01 13.1 C 9.13 g/m*3 13.1 C 0 km/h
380 10-05-2007 03:58:01 13.2 C 9.07 g/m*3 13.2 C 0 km/h
381 10-05-2007 04:10:02 13.2 C 9.07 g/m*3 13.2 C 0 km/h
382 10-05-2007 04:22:02 13.1 C 9.01 g/m*3 13.1 C 0 km/h
383 10-05-2007 04:34:02 13.1 C 9.01 g/m*3 13.1 C 0 km/h
384 10-05-2007 04:46:03 13.2 C 9.07 g/m*3 13.2 C 0 km/h
385 10-05-2007 04:58:03 13.2 C 9.07 g/m*3 13.2 C 0 km/h
386 10-05-2007 05:10:03 13.4 C 9.07 g/m*3 13.4 C 0 km/h
387 10-05-2007 05:22:02 13.4 C 9.07 g/m*3 13.4 C 0 km/h
388 10-05-2007 05:34:02 13.4 C 8.95 g/m*3 13.4 C 0 km/h
389 10-05-2007 05:46:02 13.4 C 8.95 g/m*3 13.4 C 0 km/h
390 10-05-2007 05:58:02 13.4 C 8.95 g/m*3 13.4 C 0 km/h
391 10-05-2007 06:10:02 13.4 C 8.95 g/m*3 13.4 C 0 km/h
392 10-05-2007 06:22:02 13.5 C 9.01 g/m*3 13.5 C 0 km/h
393 10-05-2007 06:34:02 13.6 C 9.06 g/m*3 13.6 C 0 km/h
394 10-05-2007 06:46:03 13.7 C 9 g/m*3 13.7 C 0 km/h
395 10-05-2007 06:58:03 13.8 C 8.94 g/m*3 13.8 C 0 km/h
396 10-05-2007 07:10:02 13.8 C 8.94 g/m*3 13.8 C 0 km/h
397 10-05-2007 07:22:02 13.8 C 9.06 g/m*3 13.8 C 0 km/h
398 10-05-2007 07:34:02 14.1 C 8.98 g/m*3 14.1 C 0 km/h
399 10-05-2007 07:46:01 14.4 C 9.02 g/m*3 14.4 C 0 km/h
400 10-05-2007 07:58:01 14.9 C 9.18 g/m*3 14.9 C 0 km/h
Sensor: Nr:Datum:Temp:Abs-Feuchte:Windchill:Wind:
Aussen-T/F 401 10-05-2007 08:10:02 15 C 8.85 g/m*3 15 C 0 km/h
402 10-05-2007 08:22:02 15.5 C 8.86 g/m*3 15.5 C 0 km/h
403 10-05-2007 08:34:01 15.5 C 8.72 g/m*3 15.5 C 0 km/h
404 10-05-2007 08:46:01 15.6 C 8.78 g/m*3 15.6 C 0 km/h
405 10-05-2007 08:58:01 15.8 C 8.88 g/m*3 15.8 C 0 km/h
406 10-05-2007 09:10:01 15.9 C 8.8 g/m*3 15.9 C 0 km/h
407 10-05-2007 09:22:02 15.6 C 8.78 g/m*3 15.6 C 0 km/h
408 10-05-2007 09:34:01 15.7 C 8.7 g/m*3 15.7 C 0 km/h
409 10-05-2007 09:46:02 16.1 C 8.5 g/m*3 16.1 C 0 km/h
410 10-05-2007 09:58:02 16.3 C 8.46 g/m*3 16.3 C 0 km/h
411 10-05-2007 10:10:02 16.6 C 8.19 g/m*3 16.6 C 0 km/h
412 10-05-2007 10:22:01 17 C 8.25 g/m*3 17 C 0 km/h
413 10-05-2007 10:34:02 17.1 C 7.86 g/m*3 17.1 C 0 km/h
414 10-05-2007 10:46:02 17.3 C 7.96 g/m*3 17.3 C 0 km/h
415 10-05-2007 10:58:02 18 C 7.99 g/m*3 18 C 0 km/h
416 10-05-2007 11:10:02 17.9 C 7.94 g/m*3 17.9 C 0 km/h
417 10-05-2007 11:22:02 17.6 C 7.95 g/m*3 17.6 C 0 km/h
418 10-05-2007 11:34:02 18.1 C 7.73 g/m*3 18.1 C 0 km/h
419 10-05-2007 11:46:02 18.3 C 7.66 g/m*3 18.3 C 0 km/h
420 10-05-2007 11:58:02 18.8 C 7.73 g/m*3 18.8 C 0 km/h
421 10-05-2007 12:10:02 18.7 C 7.52 g/m*3 18.7 C 0 km/h
422 10-05-2007 12:22:02 19.6 C 7.6 g/m*3 19.6 C 0 km/h
423 10-05-2007 12:34:02 19.5 C 7.22 g/m*3 19.5 C 0 km/h
424 10-05-2007 12:46:02 20 C 6.91 g/m*3 20 C 0 km/h
425 10-05-2007 12:58:02 20.4 C 6.9 g/m*3 20.4 C 0 km/h
Sensor: Nr:Datum:Temp:Abs-Feuchte:Windchill:Wind:
Aussen-T/F 426 10-05-2007 13:10:02 20.4 C 6.9 g/m*3 20.4 C 0 km/h
427 10-05-2007 13:22:02 20.8 C 6.7 g/m*3 20.8 C 0 km/h
428 10-05-2007 13:34:03 20.5 C 6.58 g/m*3 20.5 C 0 km/h
429 10-05-2007 13:46:02 20.6 C 6.62 g/m*3 20.6 C 0 km/h
430 10-05-2007 13:58:02 21.7 C 6.68 g/m*3 21.7 C 0 km/h
431 10-05-2007 14:10:02 22 C 6.79 g/m*3 22 C 0 km/h
432 10-05-2007 14:22:02 22.1 C 6.44 g/m*3 22.1 C 0 km/h
433 10-05-2007 14:34:01 22.8 C 6.3 g/m*3 22.8 C 0 km/h
434 10-05-2007 14:46:02 22.8 C 6.3 g/m*3 22.8 C 0 km/h
435 10-05-2007 14:58:02 23.1 C 5.99 g/m*3 23.1 C 0 km/h
436 10-05-2007 15:10:02 22.9 C 6.34 g/m*3 22.9 C 0 km/h
437 10-05-2007 15:22:02 23.6 C 6.38 g/m*3 23.6 C 0 km/h
438 10-05-2007 15:34:02 24.7 C 5.88 g/m*3 24.7 C 0 km/h
439 10-05-2007 15:46:02 24.1 C 5.47 g/m*3 24.1 C 0 km/h
440 10-05-2007 15:58:02 22.9 C 5.72 g/m*3 22.9 C 0 km/h
441 10-05-2007 16:10:02 22 C 5.63 g/m*3 22 C 0 km/h
442 10-05-2007 16:22:01 22.3 C 5.92 g/m*3 22.3 C 0 km/h
443 10-05-2007 16:34:02 22.9 C 6.13 g/m*3 22.9 C 0 km/h
444 10-05-2007 16:46:02 23.8 C 5.81 g/m*3 23.8 C 0 km/h
445 10-05-2007 16:58:02 23.2 C 5.61 g/m*3 23.2 C 0 km/h
446 10-05-2007 17:10:03 23.1 C 5.79 g/m*3 23.1 C 0 km/h
447 10-05-2007 17:22:02 22.7 C 5.86 g/m*3 22.7 C 0 km/h
448 10-05-2007 17:34:02 23 C 6.17 g/m*3 23 C 0 km/h
449 10-05-2007 17:46:02 23 C 5.96 g/m*3 23 C 0 km/h
450 10-05-2007 17:58:02 22.6 C 6.23 g/m*3 22.6 C 0 km/h
Sensor: Nr:Datum:Temp:Abs-Feuchte:Windchill:Wind:
Aussen-T/F 451 10-05-2007 18:10:02 22.8 C 6.3 g/m*3 22.8 C 0 km/h
452 10-05-2007 18:22:02 22.8 C 6.1 g/m*3 22.8 C 0 km/h
453 10-05-2007 18:34:03 23.3 C 6.06 g/m*3 23.3 C 0 km/h
454 10-05-2007 18:46:02 23.7 C 6.2 g/m*3 23.7 C 0 km/h
455 10-05-2007 18:58:02 23.7 C 6.42 g/m*3 23.7 C 0 km/h
456 10-05-2007 19:10:02 23.4 C 6.31 g/m*3 23.4 C 0 km/h
457 10-05-2007 19:22:02 22.9 C 6.13 g/m*3 22.9 C 0 km/h
458 10-05-2007 19:34:02 22.6 C 6.03 g/m*3 22.6 C 0 km/h
459 10-05-2007 19:46:02 22.7 C 6.06 g/m*3 22.7 C 0 km/h
460 10-05-2007 19:58:02 22 C 6.02 g/m*3 22 C 0 km/h
461 10-05-2007 20:10:02 21.6 C 6.64 g/m*3 21.6 C 0 km/h
462 10-05-2007 20:22:02 21.1 C 7 g/m*3 21.1 C 0 km/h
463 10-05-2007 20:34:02 20.6 C 7.34 g/m*3 20.6 C 0 km/h
464 10-05-2007 20:46:02 20.1 C 7.3 g/m*3 20.1 C 0 km/h
465 10-05-2007 20:58:02 20 C 6.91 g/m*3 20 C 0 km/h
466 10-05-2007 21:10:02 19.9 C 7.22 g/m*3 19.9 C 0 km/h
467 10-05-2007 21:22:02 19.2 C 7.42 g/m*3 19.2 C 0 km/h
468 10-05-2007 21:34:02 18.6 C 7.64 g/m*3 18.6 C 0 km/h
469 10-05-2007 21:46:02 18.3 C 7.51 g/m*3 18.3 C 0 km/h
470 10-05-2007 21:58:02 18 C 7.68 g/m*3 18 C 0 km/h
471 10-05-2007 22:10:02 17.8 C 8.04 g/m*3 17.8 C 0 km/h
472 10-05-2007 22:22:02 17.4 C 7.85 g/m*3 17.4 C 0 km/h
473 10-05-2007 22:34:02 17.2 C 7.91 g/m*3 17.2 C 0 km/h
474 10-05-2007 22:46:02 17 C 8.25 g/m*3 17 C 0 km/h
475 10-05-2007 22:58:02 16.9 C 8.34 g/m*3 16.9 C 0 km/h
Sensor: Nr:Datum:Temp:Abs-Feuchte:Windchill:Wind:
Aussen-T/F 476 10-05-2007 23:10:02 17.1 C 8.59 g/m*3 17.1 C 0 km/h
477 10-05-2007 23:22:02 17 C 8.54 g/m*3 17 C 0 km/h
478 10-05-2007 23:34:02 17 C 8.83 g/m*3 17 C 0 km/h
479 10-05-2007 23:46:02 17 C 8.83 g/m*3 17 C 0 km/h
480 10-05-2007 23:58:02 16.8 C 9.01 g/m*3 16.8 C 0 km/h
481 11-05-2007 00:10:01 16.8 C 9.01 g/m*3 16.8 C 0 km/h
482 11-05-2007 00:22:02 16.4 C 9.07 g/m*3 16.4 C 0 km/h
483 11-05-2007 00:34:02 16 C 8.86 g/m*3 16 C 0 km/h
484 11-05-2007 00:46:02 15.8 C 8.75 g/m*3 15.8 C 0 km/h
485 11-05-2007 00:58:02 15.8 C 8.48 g/m*3 15.8 C 0 km/h
486 11-05-2007 01:10:02 15.6 C 8.64 g/m*3 15.6 C 0 km/h
487 11-05-2007 01:22:01 15.5 C 8.46 g/m*3 15.5 C 0 km/h
488 11-05-2007 01:34:02 15.3 C 8.36 g/m*3 15.3 C 0 km/h
489 11-05-2007 01:46:02 15.3 C 8.36 g/m*3 15.3 C 0 km/h
490 11-05-2007 01:58:02 15.1 C 8.39 g/m*3 15.1 C 0 km/h
491 11-05-2007 02:10:03 14.9 C 8.67 g/m*3 14.9 C 0 km/h
492 11-05-2007 02:22:03 14.8 C 8.74 g/m*3 14.8 C 0 km/h
493 11-05-2007 02:34:03 14.7 C 8.94 g/m*3 14.7 C 0 km/h
494 11-05-2007 02:46:01 14.3 C 8.85 g/m*3 14.3 C 0 km/h
495 11-05-2007 02:58:01 14.5 C 9.08 g/m*3 14.5 C 0 km/h
496 11-05-2007 03:10:01 14.4 C 9.02 g/m*3 14.4 C 0 km/h
497 11-05-2007 03:22:01 14.5 C 9.08 g/m*3 14.5 C 0 km/h
498 11-05-2007 03:34:01 14.7 C 8.94 g/m*3 14.7 C 0 km/h
499 11-05-2007 03:46:01 14.9 C 8.79 g/m*3 14.9 C 0 km/h
500 11-05-2007 03:58:01 14.3 C 8.72 g/m*3 14.3 C 0 km/h
Sensor: Nr:Datum:Temp:Abs-Feuchte:Windchill:Wind:
Aussen-T/F 501 11-05-2007 04:10:02 14.6 C 8.88 g/m*3 14.6 C 0 km/h
502 11-05-2007 04:22:02 15 C 8.08 g/m*3 15 C 0 km/h
503 11-05-2007 04:34:02 16 C 7.77 g/m*3 16 C 0 km/h
504 11-05-2007 04:46:02 15.9 C 7.85 g/m*3 15.9 C 0 km/h
505 11-05-2007 04:58:02 16.5 C 7.3 g/m*3 16.5 C 0 km/h
506 11-05-2007 05:10:01 17 C 6.95 g/m*3 17 C 0 km/h
507 11-05-2007 05:22:02 17.1 C 6.84 g/m*3 17.1 C 0 km/h
508 11-05-2007 05:34:02 17 C 6.8 g/m*3 17 C 0 km/h
509 11-05-2007 05:46:01 16.9 C 6.76 g/m*3 16.9 C 0 km/h
510 11-05-2007 05:58:01 16.8 C 6.72 g/m*3 16.8 C 0 km/h
511 11-05-2007 06:10:02 16.6 C 7.06 g/m*3 16.6 C 0 km/h
512 11-05-2007 06:22:01 16.4 C 7.26 g/m*3 16.4 C 0 km/h
513 11-05-2007 06:34:01 16.3 C 7.08 g/m*3 16.3 C 0 km/h
514 11-05-2007 06:46:01 16.3 C 6.94 g/m*3 16.3 C 0 km/h
515 11-05-2007 06:58:01 16.3 C 6.8 g/m*3 16.3 C 0 km/h
516 11-05-2007 07:10:01 16.2 C 6.76 g/m*3 16.2 C 0 km/h
517 11-05-2007 07:22:02 16 C 6.81 g/m*3 16 C 0 km/h
518 11-05-2007 07:34:01 15.3 C 7.57 g/m*3 15.3 C 0 km/h
519 11-05-2007 07:46:02 15.5 C 7.4 g/m*3 15.5 C 0 km/h
520 11-05-2007 07:58:02 15.8 C 7 g/m*3 15.8 C 0 km/h
521 11-05-2007 08:10:02 16 C 6.68 g/m*3 16 C 0 km/h
522 11-05-2007 08:22:01 16 C 6.81 g/m*3 16 C 0 km/h
523 11-05-2007 08:34:02 15.8 C 7 g/m*3 15.8 C 0 km/h
524 11-05-2007 08:46:01 15.7 C 6.96 g/m*3 15.7 C 0 km/h
525 11-05-2007 08:58:01 15.5 C 7.01 g/m*3 15.5 C 0 km/h
Sensor: Nr:Datum:Temp:Abs-Feuchte:Windchill:Wind:
Aussen-T/F 526 11-05-2007 09:10:02 15.4 C 7.09 g/m*3 15.4 C 0 km/h
527 11-05-2007 09:22:02 15.3 C 7.44 g/m*3 15.3 C 0 km/h
528 11-05-2007 09:34:01 15.7 C 6.96 g/m*3 15.7 C 0 km/h
529 11-05-2007 09:46:02 16.3 C 6.52 g/m*3 16.3 C 0 km/h
530 11-05-2007 09:58:02 16.3 C 6.52 g/m*3 16.3 C 0 km/h
531 11-05-2007 10:10:01 15.9 C 6.77 g/m*3 15.9 C 0 km/h
532 11-05-2007 10:22:01 16.3 C 6.94 g/m*3 16.3 C 0 km/h
533 11-05-2007 10:34:02 16.4 C 6.98 g/m*3 16.4 C 0 km/h
534 11-05-2007 10:46:02 16.2 C 6.48 g/m*3 16.2 C 0 km/h
535 11-05-2007 10:58:02 15.4 C 6.83 g/m*3 15.4 C 0 km/h
536 11-05-2007 11:10:02 14.7 C 7.81 g/m*3 14.7 C 0 km/h
537 11-05-2007 11:22:01 15.4 C 6.83 g/m*3 15.4 C 0 km/h
538 11-05-2007 11:34:02 15.3 C 6.27 g/m*3 15.3 C 0 km/h
539 11-05-2007 11:46:01 15.2 C 6.1 g/m*3 15.2 C 0 km/h
540 11-05-2007 11:58:01 14.8 C 6.08 g/m*3 14.8 C 0 km/h
541 11-05-2007 12:10:01 14.9 C 6.12 g/m*3 14.9 C 0 km/h
542 11-05-2007 12:22:02 14.5 C 5.85 g/m*3 14.5 C 0 km/h
543 11-05-2007 12:34:01 14.8 C 5.7 g/m*3 14.8 C 0 km/h
544 11-05-2007 12:46:02 15.4 C 5.12 g/m*3 15.4 C 0 km/h
545 11-05-2007 12:58:02 15.7 C 4.82 g/m*3 15.7 C 0 km/h
546 11-05-2007 13:10:02 15.3 C 4.96 g/m*3 15.3 C 0 km/h
547 11-05-2007 13:22:01 15.2 C 5.06 g/m*3 15.2 C 0 km/h
548 11-05-2007 13:34:02 15.6 C 4.92 g/m*3 15.6 C 0 km/h
549 11-05-2007 13:46:01 15.6 C 5.05 g/m*3 15.6 C 0 km/h
550 11-05-2007 13:58:01 15.9 C 4.88 g/m*3 15.9 C 0 km/h
Sensor: Nr:Datum:Temp:Abs-Feuchte:Windchill:Wind:
Aussen-T/F 551 11-05-2007 14:10:02 16.2 C 4.69 g/m*3 16.2 C 0 km/h
552 11-05-2007 14:22:02 16.2 C 4.69 g/m*3 16.2 C 0 km/h
553 11-05-2007 14:34:01 16.8 C 4.72 g/m*3 16.8 C 0 km/h
554 11-05-2007 14:46:02 16.7 C 4.83 g/m*3 16.7 C 0 km/h
555 11-05-2007 14:58:02 16.8 C 4.29 g/m*3 16.8 C 0 km/h
556 11-05-2007 15:10:02 17.6 C 4.2 g/m*3 17.6 C 0 km/h
557 11-05-2007 15:22:01 17.7 C 4.22 g/m*3 17.7 C 0 km/h
558 11-05-2007 15:34:01 17.6 C 4.5 g/m*3 17.6 C 0 km/h
559 11-05-2007 15:46:01 19.4 C 5.01 g/m*3 19.4 C 0 km/h
560 11-05-2007 15:58:01 18.4 C 4.72 g/m*3 18.4 C 0 km/h
561 11-05-2007 16:10:01 18.3 C 5.16 g/m*3 18.3 C 0 km/h
562 11-05-2007 16:22:02 18.5 C 5.38 g/m*3 18.5 C 0 km/h
563 11-05-2007 16:34:01 18.2 C 5.44 g/m*3 18.2 C 0 km/h
564 11-05-2007 16:46:02 17.8 C 5.46 g/m*3 17.8 C 0 km/h
565 11-05-2007 16:58:02 17.3 C 5.6 g/m*3 17.3 C 0 km/h
566 11-05-2007 17:10:02 16.6 C 5.65 g/m*3 16.6 C 0 km/h
567 11-05-2007 17:22:02 16.1 C 5.62 g/m*3 16.1 C 0 km/h
568 11-05-2007 17:34:01 15.7 C 5.49 g/m*3 15.7 C 0 km/h
569 11-05-2007 17:46:01 15.6 C 5.72 g/m*3 15.6 C 0 km/h
570 11-05-2007 17:58:02 15.6 C 5.59 g/m*3 15.6 C 0 km/h
571 11-05-2007 18:10:01 15.4 C 5.52 g/m*3 15.4 C 0 km/h
572 11-05-2007 18:22:02 15.4 C 5.26 g/m*3 15.4 C 0 km/h
573 11-05-2007 18:34:01 16 C 5.04 g/m*3 16 C 0 km/h
574 11-05-2007 18:46:02 16 C 5.18 g/m*3 16 C 0 km/h
575 11-05-2007 18:58:02 16.3 C 5.41 g/m*3 16.3 C 0 km/h
Sensor: Nr:Datum:Temp:Abs-Feuchte:Windchill:Wind:
Aussen-T/F 576 11-05-2007 19:10:02 16.4 C 5.58 g/m*3 16.4 C 0 km/h
577 11-05-2007 19:22:01 16 C 5.59 g/m*3 16 C 0 km/h
578 11-05-2007 19:34:01 16 C 5.59 g/m*3 16 C 0 km/h
579 11-05-2007 19:46:01 15.6 C 5.85 g/m*3 15.6 C 0 km/h
580 11-05-2007 19:58:01 15.3 C 5.88 g/m*3 15.3 C 0 km/h
581 11-05-2007 20:10:01 15.2 C 5.84 g/m*3 15.2 C 0 km/h
582 11-05-2007 20:22:02 15.4 C 5.39 g/m*3 15.4 C 0 km/h
583 11-05-2007 20:34:01 15.3 C 5.35 g/m*3 15.3 C 0 km/h
584 11-05-2007 20:46:02 14.7 C 5.54 g/m*3 14.7 C 0 km/h
585 11-05-2007 20:58:02 14.3 C 5.41 g/m*3 14.3 C 0 km/h
586 11-05-2007 21:10:01 13.9 C 5.39 g/m*3 13.9 C 0 km/h
587 11-05-2007 21:22:01 13.8 C 5.48 g/m*3 13.8 C 0 km/h
588 11-05-2007 21:34:02 13.4 C 5.58 g/m*3 13.4 C 0 km/h
589 11-05-2007 21:46:01 13.1 C 5.71 g/m*3 13.1 C 0 km/h
590 11-05-2007 21:58:01 12.8 C 5.94 g/m*3 12.8 C 0 km/h
591 11-05-2007 22:10:01 12.8 C 5.94 g/m*3 12.8 C 0 km/h
592 11-05-2007 22:22:02 12.8 C 6.05 g/m*3 12.8 C 0 km/h
593 11-05-2007 22:34:01 12.8 C 6.16 g/m*3 12.8 C 0 km/h
594 11-05-2007 22:46:02 12.7 C 6.23 g/m*3 12.7 C 0 km/h
595 11-05-2007 22:58:02 12.7 C 6.23 g/m*3 12.7 C 0 km/h
596 11-05-2007 23:10:01 12.7 C 6.12 g/m*3 12.7 C 0 km/h
597 11-05-2007 23:22:01 12.7 C 6.35 g/m*3 12.7 C 0 km/h
598 11-05-2007 23:34:02 12.7 C 6.35 g/m*3 12.7 C 0 km/h
599 11-05-2007 23:46:01 12.6 C 6.42 g/m*3 12.6 C 0 km/h
600 11-05-2007 23:58:01 12.7 C 6.57 g/m*3 12.7 C 0 km/h
Sensor: Nr:Datum:Temp:Abs-Feuchte:Windchill:Wind:
Aussen-T/F 601 12-05-2007 00:10:02 12.7 C 6.57 g/m*3 12.7 C 0 km/h
602 12-05-2007 00:24:02 12.7 C 6.57 g/m*3 12.7 C 0 km/h
603 12-05-2007 00:36:02 12.7 C 6.68 g/m*3 12.7 C 0 km/h
604 12-05-2007 00:48:02 12.6 C 6.86 g/m*3 12.6 C 0 km/h
605 12-05-2007 01:00:02 11.9 C 7.2 g/m*3 11.9 C 0 km/h
606 12-05-2007 01:12:02 11.3 C 7.75 g/m*3 11.3 C 0 km/h
607 12-05-2007 01:24:02 11.1 C 7.96 g/m*3 11.1 C 0 km/h
608 12-05-2007 01:36:02 11.2 C 8.11 g/m*3 11.2 C 0 km/h
609 12-05-2007 01:48:02 11.4 C 8.21 g/m*3 11.4 C 0 km/h
610 12-05-2007 02:00:02 11.7 C 8.16 g/m*3 11.7 C 0 km/h
611 12-05-2007 02:12:02 11.8 C 7.89 g/m*3 11.8 C 0 km/h
612 12-05-2007 02:24:02 11.9 C 7.94 g/m*3 11.9 C 0 km/h
613 12-05-2007 02:36:02 11.8 C 7.89 g/m*3 11.8 C 0 km/h
614 12-05-2007 02:48:03 11.4 C 7.9 g/m*3 11.4 C 0 km/h
615 12-05-2007 03:00:03 11.2 C 8.01 g/m*3 11.2 C 0 km/h
616 12-05-2007 03:12:03 11.3 C 8.26 g/m*3 11.3 C 0 km/h
617 12-05-2007 03:24:03 11.3 C 8.26 g/m*3 11.3 C 0 km/h
618 12-05-2007 03:36:03 11.5 C 8.47 g/m*3 11.5 C 0 km/h
619 12-05-2007 03:48:03 11.6 C 8.42 g/m*3 11.6 C 0 km/h
620 12-05-2007 04:00:03 11.8 C 8.63 g/m*3 11.8 C 0 km/h
621 12-05-2007 04:12:03 12.2 C 8.63 g/m*3 12.2 C 0 km/h
622 12-05-2007 04:24:03 12.8 C 8.74 g/m*3 12.8 C 0 km/h
623 12-05-2007 04:36:03 12.8 C 8.51 g/m*3 12.8 C 0 km/h
624 12-05-2007 04:48:03 12.7 C 8.46 g/m*3 12.7 C 0 km/h
625 12-05-2007 05:00:03 12.5 C 8.47 g/m*3 12.5 C 0 km/h
Sensor: Nr:Datum:Temp:Abs-Feuchte:Windchill:Wind:
Aussen-T/F 626 12-05-2007 05:12:03 12.8 C 8.62 g/m*3 12.8 C 0 km/h
627 12-05-2007 05:24:03 13 C 8.51 g/m*3 13 C 0 km/h
628 12-05-2007 05:36:03 13.2 C 8.5 g/m*3 13.2 C 0 km/h
629 12-05-2007 05:48:03 13.2 C 8.61 g/m*3 13.2 C 0 km/h
630 12-05-2007 06:00:03 13 C 8.73 g/m*3 13 C 0 km/h
631 12-05-2007 06:12:03 12.9 C 8.79 g/m*3 12.9 C 0 km/h
632 12-05-2007 06:24:04 12.8 C 8.62 g/m*3 12.8 C 0 km/h
633 12-05-2007 06:36:04 12.9 C 8.68 g/m*3 12.9 C 0 km/h
634 12-05-2007 06:48:04 13.1 C 8.56 g/m*3 13.1 C 0 km/h
635 12-05-2007 07:00:04 13.2 C 8.38 g/m*3 13.2 C 0 km/h
636 12-05-2007 07:12:04 13.4 C 8.14 g/m*3 13.4 C 0 km/h
637 12-05-2007 07:24:04 13.4 C 8.02 g/m*3 13.4 C 0 km/h
638 12-05-2007 07:36:04 13.4 C 8.02 g/m*3 13.4 C 0 km/h
639 12-05-2007 07:48:04 13.5 C 7.95 g/m*3 13.5 C 0 km/h
640 12-05-2007 08:00:04 13.4 C 8.02 g/m*3 13.4 C 0 km/h
641 12-05-2007 08:12:03 13.1 C 8.22 g/m*3 13.1 C 0 km/h
642 12-05-2007 08:24:02 12.5 C 8.58 g/m*3 12.5 C 0 km/h
643 12-05-2007 08:36:02 12.3 C 9.01 g/m*3 12.3 C 0 km/h
644 12-05-2007 08:48:01 12.8 C 9.18 g/m*3 12.8 C 0 km/h
645 12-05-2007 09:00:01 13.4 C 9.18 g/m*3 13.4 C 0 km/h
646 12-05-2007 09:12:01 13.9 C 8.63 g/m*3 13.9 C 0 km/h
647 12-05-2007 09:24:01 13.9 C 8.51 g/m*3 13.9 C 0 km/h
648 12-05-2007 09:36:00 14.2 C 8.55 g/m*3 14.2 C 0 km/h
649 12-05-2007 09:48:02 14.8 C 8.36 g/m*3 14.8 C 0 km/h
650 12-05-2007 10:00:02 13.6 C 8.71 g/m*3 13.6 C 0 km/h
Sensor: Nr:Datum:Temp:Abs-Feuchte:Windchill:Wind:
Aussen-T/F 651 12-05-2007 10:12:02 13.2 C 8.96 g/m*3 13.2 C 0 km/h
652 12-05-2007 10:24:02 13.1 C 8.9 g/m*3 13.1 C 0 km/h
653 12-05-2007 10:36:01 13.4 C 9.07 g/m*3 13.4 C 0 km/h
654 12-05-2007 10:48:02 13.4 C 9.18 g/m*3 13.4 C 0 km/h
655 12-05-2007 11:00:02 14.4 C 9.27 g/m*3 14.4 C 0 km/h
656 12-05-2007 11:12:02 14.7 C 8.94 g/m*3 14.7 C 0 km/h
657 12-05-2007 11:24:02 15.4 C 8.67 g/m*3 15.4 C 0 km/h
658 12-05-2007 11:36:02 15.8 C 8.48 g/m*3 15.8 C 0 km/h
659 12-05-2007 11:48:01 16.4 C 8.23 g/m*3 16.4 C 0 km/h
660 12-05-2007 12:00:01 16.2 C 8.14 g/m*3 16.2 C 0 km/h
661 12-05-2007 12:12:02 16.4 C 7.68 g/m*3 16.4 C 0 km/h
662 12-05-2007 12:24:02 17 C 7.81 g/m*3 17 C 0 km/h
663 12-05-2007 12:36:01 16.8 C 7.58 g/m*3 16.8 C 0 km/h
664 12-05-2007 12:48:02 17.7 C 7.54 g/m*3 17.7 C 0 km/h
665 12-05-2007 13:00:02 17.4 C 7.41 g/m*3 17.4 C 0 km/h
666 12-05-2007 13:12:01 17.5 C 7.6 g/m*3 17.5 C 0 km/h
667 12-05-2007 13:24:02 18.2 C 7.31 g/m*3 18.2 C 0 km/h
668 12-05-2007 13:36:02 19.1 C 6.72 g/m*3 19.1 C 0 km/h
669 12-05-2007 13:48:02 17.5 C 7.45 g/m*3 17.5 C 0 km/h
670 12-05-2007 14:00:02 17.1 C 7.71 g/m*3 17.1 C 0 km/h
671 12-05-2007 14:12:02 15.9 C 8.67 g/m*3 15.9 C 0 km/h
672 12-05-2007 14:24:02 15.6 C 8.25 g/m*3 15.6 C 0 km/h
673 12-05-2007 14:36:02 15.3 C 8.49 g/m*3 15.3 C 0 km/h
674 12-05-2007 14:48:02 16.7 C 8.81 g/m*3 16.7 C 0 km/h
675 12-05-2007 15:00:02 18.1 C 8.5 g/m*3 18.1 C 0 km/h
Sensor: Nr:Datum:Temp:Abs-Feuchte:Windchill:Wind:
Aussen-T/F 676 12-05-2007 15:12:02 18.5 C 7.75 g/m*3 18.5 C 0 km/h
677 12-05-2007 15:24:02 18.1 C 7.42 g/m*3 18.1 C 0 km/h
678 12-05-2007 15:36:02 18.3 C 7.19 g/m*3 18.3 C 0 km/h
679 12-05-2007 15:48:02 17.7 C 8.15 g/m*3 17.7 C 0 km/h
680 12-05-2007 16:00:02 18.1 C 7.42 g/m*3 18.1 C 0 km/h
681 12-05-2007 16:12:02 18.1 C 8.03 g/m*3 18.1 C 0 km/h
682 12-05-2007 16:24:03 19.4 C 7.01 g/m*3 19.4 C 0 km/h
683 12-05-2007 16:36:02 19.7 C 6.62 g/m*3 19.7 C 0 km/h
684 12-05-2007 16:48:02 19.2 C 6.76 g/m*3 19.2 C 0 km/h
685 12-05-2007 17:00:02 18.9 C 6.48 g/m*3 18.9 C 0 km/h
686 12-05-2007 17:12:02 18.7 C 6.56 g/m*3 18.7 C 0 km/h
687 12-05-2007 17:24:01 19.3 C 6.47 g/m*3 19.3 C 0 km/h
688 12-05-2007 17:36:02 19.1 C 6.39 g/m*3 19.1 C 0 km/h
689 12-05-2007 17:48:02 18.7 C 6.24 g/m*3 18.7 C 0 km/h
690 12-05-2007 18:00:02 18.9 C 6.48 g/m*3 18.9 C 0 km/h
691 12-05-2007 18:12:01 18.7 C 6.4 g/m*3 18.7 C 0 km/h
692 12-05-2007 18:24:02 18.5 C 6.33 g/m*3 18.5 C 0 km/h
693 12-05-2007 18:36:02 18.7 C 6.4 g/m*3 18.7 C 0 km/h
694 12-05-2007 18:48:03 18.4 C 6.45 g/m*3 18.4 C 0 km/h
695 12-05-2007 19:00:03 18.3 C 6.41 g/m*3 18.3 C 0 km/h
696 12-05-2007 19:12:02 18.1 C 6.49 g/m*3 18.1 C 0 km/h
697 12-05-2007 19:24:02 18 C 6.45 g/m*3 18 C 0 km/h
698 12-05-2007 19:36:03 17.9 C 6.57 g/m*3 17.9 C 0 km/h
699 12-05-2007 19:48:02 17.9 C 6.72 g/m*3 17.9 C 0 km/h
700 12-05-2007 20:00:02 18 C 6.6 g/m*3 18 C 0 km/h
Sensor: Nr:Datum:Temp:Abs-Feuchte:Windchill:Wind:
Aussen-T/F 701 12-05-2007 20:12:02 18.3 C 6.57 g/m*3 18.3 C 0 km/h
702 12-05-2007 20:24:03 18 C 6.6 g/m*3 18 C 0 km/h
703 12-05-2007 20:36:02 17.6 C 6.75 g/m*3 17.6 C 0 km/h
704 12-05-2007 20:48:02 17.1 C 6.84 g/m*3 17.1 C 0 km/h
705 12-05-2007 21:00:02 17.1 C 6.84 g/m*3 17.1 C 0 km/h
706 12-05-2007 21:12:02 16.5 C 6.88 g/m*3 16.5 C 0 km/h
707 12-05-2007 21:24:01 16 C 6.95 g/m*3 16 C 0 km/h
708 12-05-2007 21:36:02 15.7 C 7.09 g/m*3 15.7 C 0 km/h
709 12-05-2007 21:48:01 15.3 C 7.31 g/m*3 15.3 C 0 km/h
710 12-05-2007 22:00:01 14.8 C 7.47 g/m*3 14.8 C 0 km/h
711 12-05-2007 22:12:02 14.7 C 7.55 g/m*3 14.7 C 0 km/h
712 12-05-2007 22:24:01 14.2 C 7.57 g/m*3 14.2 C 0 km/h
713 12-05-2007 22:36:01 14.3 C 7.62 g/m*3 14.3 C 0 km/h
714 12-05-2007 22:48:01 14.1 C 7.65 g/m*3 14.1 C 0 km/h
715 12-05-2007 23:00:01 14 C 7.6 g/m*3 14 C 0 km/h
716 12-05-2007 23:12:01 13.9 C 7.67 g/m*3 13.9 C 0 km/h
717 12-05-2007 23:24:02 13.9 C 7.67 g/m*3 13.9 C 0 km/h
718 12-05-2007 23:36:01 13.9 C 7.67 g/m*3 13.9 C 0 km/h
719 12-05-2007 23:48:02 13.7 C 7.58 g/m*3 13.7 C 0 km/h
720 13-05-2007 00:00:02 13.5 C 7.6 g/m*3 13.5 C 0 km/h
721 13-05-2007 00:12:02 13.3 C 7.63 g/m*3 13.3 C 0 km/h
722 13-05-2007 00:24:02 13.1 C 7.65 g/m*3 13.1 C 0 km/h
723 13-05-2007 00:36:02 12.9 C 7.78 g/m*3 12.9 C 0 km/h
724 13-05-2007 00:48:02 12.6 C 7.74 g/m*3 12.6 C 0 km/h
725 13-05-2007 01:00:02 12.4 C 7.76 g/m*3 12.4 C 0 km/h
Sensor: Nr:Datum:Temp:Abs-Feuchte:Windchill:Wind:
Aussen-T/F 726 13-05-2007 01:12:02 12.2 C 7.77 g/m*3 12.2 C 0 km/h
727 13-05-2007 01:24:02 12.1 C 7.83 g/m*3 12.1 C 0 km/h
728 13-05-2007 01:36:02 12.1 C 7.83 g/m*3 12.1 C 0 km/h
729 13-05-2007 01:48:03 12 C 7.78 g/m*3 12 C 0 km/h
730 13-05-2007 02:00:03 11.8 C 7.89 g/m*3 11.8 C 0 km/h
731 13-05-2007 02:12:03 11.8 C 7.89 g/m*3 11.8 C 0 km/h
732 13-05-2007 02:24:03 11.3 C 7.85 g/m*3 11.3 C 0 km/h
733 13-05-2007 02:36:02 11 C 7.71 g/m*3 11 C 0 km/h
734 13-05-2007 02:49:04 10.8 C 7.71 g/m*3 10.8 C 0 km/h
735 13-05-2007 03:01:04 10.6 C 7.71 g/m*3 10.6 C 0 km/h
736 13-05-2007 03:13:03 10.4 C 7.71 g/m*3 10.4 C 0 km/h
737 13-05-2007 03:25:03 10.3 C 7.76 g/m*3 10.3 C 0 km/h
738 13-05-2007 03:37:02 10.2 C 7.71 g/m*3 10.2 C 0 km/h
739 13-05-2007 03:49:02 10 C 7.71 g/m*3 10 C 0 km/h
740 13-05-2007 04:01:03 10 C 7.71 g/m*3 10 C 0 km/h
741 13-05-2007 04:13:03 9.9 C 7.84 g/m*3 9.9 C 0 km/h
742 13-05-2007 04:25:03 9.8 C 7.79 g/m*3 9.8 C 0 km/h
743 13-05-2007 04:37:04 9.7 C 7.74 g/m*3 9.7 C 0 km/h
744 13-05-2007 04:49:03 9.6 C 7.69 g/m*3 9.6 C 0 km/h
745 13-05-2007 05:01:03 9.5 C 7.74 g/m*3 9.5 C 0 km/h
746 13-05-2007 05:13:03 9.4 C 7.69 g/m*3 9.4 C 0 km/h
747 13-05-2007 05:25:02 9.3 C 7.64 g/m*3 9.3 C 0 km/h
748 13-05-2007 05:37:02 9.2 C 7.68 g/m*3 9.2 C 0 km/h
749 13-05-2007 05:49:02 9.2 C 7.68 g/m*3 9.2 C 0 km/h
750 13-05-2007 06:01:02 9.2 C 7.68 g/m*3 9.2 C 0 km/h
Sensor: Nr:Datum:Temp:Abs-Feuchte:Windchill:Wind:
Aussen-T/F 751 13-05-2007 06:13:02 9.3 C 7.82 g/m*3 9.3 C 0 km/h
752 13-05-2007 06:25:03 9.4 C 7.78 g/m*3 9.4 C 0 km/h
753 13-05-2007 06:37:02 9.4 C 7.78 g/m*3 9.4 C 0 km/h
754 13-05-2007 06:49:02 9.7 C 7.93 g/m*3 9.7 C 0 km/h
755 13-05-2007 07:01:02 10 C 7.89 g/m*3 10 C 0 km/h
756 13-05-2007 07:13:02 10.2 C 7.9 g/m*3 10.2 C 0 km/h
757 13-05-2007 07:25:01 10.6 C 8 g/m*3 10.6 C 0 km/h
758 13-05-2007 07:37:02 10.8 C 7.91 g/m*3 10.8 C 0 km/h
759 13-05-2007 07:49:02 11.3 C 8.06 g/m*3 11.3 C 0 km/h
760 13-05-2007 08:01:03 11.5 C 8.06 g/m*3 11.5 C 0 km/h
761 13-05-2007 08:13:03 11.8 C 8 g/m*3 11.8 C 0 km/h
762 13-05-2007 08:25:02 12 C 7.89 g/m*3 12 C 0 km/h
763 13-05-2007 08:37:02 12.5 C 8.25 g/m*3 12.5 C 0 km/h
764 13-05-2007 08:49:02 12.9 C 8.45 g/m*3 12.9 C 0 km/h
765 13-05-2007 09:01:02 14 C 8.44 g/m*3 14 C 0 km/h
766 13-05-2007 09:13:02 14.2 C 8.18 g/m*3 14.2 C 0 km/h
767 13-05-2007 09:25:03 14.9 C 8.54 g/m*3 14.9 C 0 km/h
768 13-05-2007 09:37:02 16 C 8.72 g/m*3 16 C 0 km/h
769 13-05-2007 09:49:02 16.9 C 8.92 g/m*3 16.9 C 0 km/h
770 13-05-2007 10:01:02 17.8 C 8.8 g/m*3 17.8 C 0 km/h
771 13-05-2007 10:13:02 18.3 C 8.44 g/m*3 18.3 C 0 km/h
772 13-05-2007 10:25:02 18.9 C 8.26 g/m*3 18.9 C 0 km/h
773 13-05-2007 10:37:02 19.1 C 7.7 g/m*3 19.1 C 0 km/h
774 13-05-2007 10:49:02 19.4 C 7.84 g/m*3 19.4 C 0 km/h
775 13-05-2007 11:01:01 19.8 C 7.34 g/m*3 19.8 C 0 km/h
Sensor: Nr:Datum:Temp:Abs-Feuchte:Windchill:Wind:
Aussen-T/F 776 13-05-2007 11:13:01 20.1 C 7.3 g/m*3 20.1 C 0 km/h
777 13-05-2007 11:25:02 20 C 7.43 g/m*3 20 C 0 km/h
778 13-05-2007 11:37:02 19.4 C 7.67 g/m*3 19.4 C 0 km/h
779 13-05-2007 11:49:02 17 C 8.25 g/m*3 17 C 0 km/h
780 13-05-2007 12:01:02 15.9 C 9.75 g/m*3 15.9 C 0 km/h
781 13-05-2007 12:13:02 15.5 C 10.18 g/m*3 15.5 C 0 km/h
782 13-05-2007 12:25:02 15.5 C 10.31 g/m*3 15.5 C 0 km/h
783 13-05-2007 12:37:02 16.1 C 9.87 g/m*3 16.1 C 0 km/h
784 13-05-2007 12:49:02 17.2 C 9.96 g/m*3 17.2 C 0 km/h
785 13-05-2007 13:01:02 18.7 C 9.13 g/m*3 18.7 C 0 km/h
786 13-05-2007 13:13:02 20 C 8.99 g/m*3 20 C 0 km/h
787 13-05-2007 13:25:02 20.3 C 8.62 g/m*3 20.3 C 0 km/h
788 13-05-2007 13:37:02 21.2 C 8.52 g/m*3 21.2 C 0 km/h
789 13-05-2007 13:49:02 22 C 7.96 g/m*3 22 C 0 km/h
790 13-05-2007 14:01:02 22.5 C 7.99 g/m*3 22.5 C 0 km/h
791 13-05-2007 14:13:03 22 C 7.96 g/m*3 22 C 0 km/h
792 13-05-2007 14:25:02 22.2 C 8.05 g/m*3 22.2 C 0 km/h
793 13-05-2007 14:37:02 22 C 7.96 g/m*3 22 C 0 km/h
794 13-05-2007 14:49:02 22.3 C 8.29 g/m*3 22.3 C 0 km/h
795 13-05-2007 15:01:02 22.5 C 8.39 g/m*3 22.5 C 0 km/h
796 13-05-2007 15:13:02 23 C 8.22 g/m*3 23 C 0 km/h
797 13-05-2007 15:25:02 23.3 C 8.36 g/m*3 23.3 C 0 km/h
798 13-05-2007 15:37:02 24.2 C 8.14 g/m*3 24.2 C 0 km/h
799 13-05-2007 15:49:02 25.6 C 8.33 g/m*3 25.6 C 0 km/h
800 13-05-2007 16:01:02 26.8 C 8.14 g/m*3 26.8 C 0 km/h
Sensor: Nr:Datum:Temp:Abs-Feuchte:Windchill:Wind:
Aussen-T/F 801 13-05-2007 16:13:02 26.8 C 7.64 g/m*3 26.8 C 0 km/h
802 13-05-2007 16:25:02 26.6 C 7.8 g/m*3 26.6 C 0 km/h
803 13-05-2007 16:37:02 26.3 C 8.17 g/m*3 26.3 C 0 km/h
804 13-05-2007 16:49:03 26.2 C 8.37 g/m*3 26.2 C 0 km/h
805 13-05-2007 17:01:02 27.2 C 8.07 g/m*3 27.2 C 0 km/h
806 13-05-2007 17:13:03 28.1 C 7.93 g/m*3 28.1 C 0 km/h
807 13-05-2007 17:25:02 28.4 C 8.06 g/m*3 28.4 C 0 km/h
808 13-05-2007 17:37:03 29 C 7.76 g/m*3 29 C 0 km/h
809 13-05-2007 17:49:02 28.1 C 7.93 g/m*3 28.1 C 0 km/h
810 13-05-2007 18:01:02 28 C 8.16 g/m*3 28 C 0 km/h
811 13-05-2007 18:13:02 28 C 8.16 g/m*3 28 C 0 km/h
812 13-05-2007 18:25:02 26.8 C 8.4 g/m*3 26.8 C 0 km/h
813 13-05-2007 18:37:02 25.9 C 8.47 g/m*3 25.9 C 0 km/h
814 13-05-2007 18:49:02 25.8 C 8.43 g/m*3 25.8 C 0 km/h
815 13-05-2007 19:01:02 25.1 C 8.57 g/m*3 25.1 C 0 km/h
816 13-05-2007 19:13:02 24.5 C 9.18 g/m*3 24.5 C 0 km/h
817 13-05-2007 19:25:02 23.8 C 9.25 g/m*3 23.8 C 0 km/h
818 13-05-2007 19:37:02 23.1 C 9.51 g/m*3 23.1 C 0 km/h
819 13-05-2007 19:49:02 22.4 C 9.93 g/m*3 22.4 C 0 km/h
820 13-05-2007 20:01:02 22.2 C 9.42 g/m*3 22.2 C 0 km/h
821 13-05-2007 20:13:02 22 C 9.9 g/m*3 22 C 0 km/h
822 13-05-2007 20:25:02 18.5 C 9.97 g/m*3 18.5 C 0 km/h
823 13-05-2007 20:37:02 17.2 C 10.54 g/m*3 17.2 C 0 km/h
824 13-05-2007 20:49:01 17.3 C 10.46 g/m*3 17.3 C 0 km/h
825 13-05-2007 21:01:02 17.5 C 10.44 g/m*3 17.5 C 0 km/h
Sensor: Nr:Datum:Temp:Abs-Feuchte:Windchill:Wind:
Aussen-T/F 826 13-05-2007 21:13:02 17.6 C 10.65 g/m*3 17.6 C 0 km/h
827 13-05-2007 21:25:02 17.7 C 10.41 g/m*3 17.7 C 0 km/h
828 13-05-2007 21:37:01 17.6 C 10.5 g/m*3 17.6 C 0 km/h
829 13-05-2007 21:49:02 17.1 C 10.34 g/m*3 17.1 C 0 km/h
830 13-05-2007 22:01:01 16.9 C 10.36 g/m*3 16.9 C 0 km/h
831 13-05-2007 22:13:01 17.1 C 10.34 g/m*3 17.1 C 0 km/h
832 13-05-2007 22:25:02 17.1 C 10.34 g/m*3 17.1 C 0 km/h
833 13-05-2007 22:37:02 16.8 C 10.44 g/m*3 16.8 C 0 km/h
834 13-05-2007 22:49:01 16.5 C 10.25 g/m*3 16.5 C 0 km/h
835 13-05-2007 23:01:01 16.5 C 10.39 g/m*3 16.5 C 0 km/h
836 13-05-2007 23:13:01 16.6 C 10.31 g/m*3 16.6 C 0 km/h
837 13-05-2007 23:25:01 16.5 C 9.27 g/m*3 16.5 C 0 km/h
838 13-05-2007 23:37:02 15.8 C 9.56 g/m*3 15.8 C 0 km/h
839 13-05-2007 23:49:02 15.4 C 9.33 g/m*3 15.4 C 0 km/h

Legende:
   Min
   Max


Maximal/Minimal-Werte vom 07.05.2007 - 13.05.2007

Sensor Min Max Avg
Temp
(Aussen-T/F)
9.2 °C
13-05-2007  05:37:02
29 °C
13-05-2007  17:37:03
15.4 °C
Abs-Feuchte
(Aussen-T/F)
4.2 g/m*3
11-05-2007  15:10:02
11.15 g/m*3
07-05-2007  23:56:02
7.95 g/m*3
Windchill
(Aussen-T/F)
9.2 C
13-05-2007  05:37:02
29 C
13-05-2007  17:37:03
15.39 C

Die Daten stammen von einer Davis Vantage Pro 2 Wetter-Station und werden unter Linux mit der Software wview2wettercgi und aufbereitet. Alle Angaben erfolgen ohne Gewähr für ihre Vollständigkeit oder Richtigkeit.
Kontakt: Rainer Krienke krienke@uni-koblenz.de . Meine Webseiten an der Uni Koblenz oder privat.
Version: $Revision: 0.78 $